createdAt,value
2018-11-23T00:01:10.962Z,0.07
2018-11-23T00:03:41.327Z,0.08
2018-11-23T00:06:11.629Z,0.13
2018-11-23T00:08:59.013Z,0.18
2018-11-23T00:11:29.211Z,0.18
2018-11-23T00:13:59.459Z,0.14
2018-11-23T00:16:29.865Z,0.14
2018-11-23T00:19:00.202Z,0.16
2018-11-23T00:21:30.512Z,0.15
2018-11-23T00:24:00.903Z,0.10
2018-11-23T00:26:31.441Z,0.11
2018-11-23T00:29:01.945Z,0.15
2018-11-23T00:31:33.870Z,0.22
2018-11-23T00:34:05.122Z,0.28
2018-11-23T00:36:36.408Z,0.26
2018-11-23T00:39:07.385Z,0.16
2018-11-23T00:41:37.665Z,0.16
2018-11-23T00:44:08.775Z,0.21
2018-11-23T00:46:39.814Z,0.18
2018-11-23T00:49:09.993Z,0.27
2018-11-23T00:51:40.335Z,0.29
2018-11-23T00:54:14.116Z,0.24
2018-11-23T00:56:44.492Z,0.25
2018-11-23T00:59:14.811Z,0.34
2018-11-23T01:01:50.385Z,0.33
2018-11-23T01:04:21.260Z,0.31
2018-11-23T01:06:52.087Z,0.30
2018-11-23T01:09:22.544Z,0.27
2018-11-23T01:11:53.650Z,0.28
2018-11-23T01:14:23.892Z,0.32
2018-11-23T01:16:54.359Z,0.34
2018-11-23T01:19:25.035Z,0.33
2018-11-23T01:21:55.534Z,0.25
2018-11-23T01:24:25.871Z,0.15
2018-11-23T01:26:57.335Z,0.09
2018-11-23T01:29:27.790Z,0.04
2018-11-23T01:31:58.148Z,0.05
2018-11-23T01:34:28.343Z,0.10
2018-11-23T01:36:59.036Z,0.14
2018-11-23T01:39:29.258Z,0.16
2018-11-23T01:41:59.520Z,0.14
2018-11-23T01:44:30.237Z,0.19
2018-11-23T01:47:02.741Z,0.22
2018-11-23T01:49:33.264Z,0.13
2018-11-23T01:52:04.223Z,0.17
2018-11-23T01:54:34.676Z,0.19
2018-11-23T01:57:06.086Z,0.19
2018-11-23T01:59:36.443Z,0.14
2018-11-23T02:02:07.403Z,0.13
2018-11-23T02:04:38.629Z,0.11
2018-11-23T02:07:09.014Z,0.15
2018-11-23T02:09:39.331Z,0.16
2018-11-23T02:14:45.816Z,0.14
2018-11-23T02:17:16.064Z,0.16
2018-11-23T02:19:47.660Z,0.16
2018-11-23T02:22:17.999Z,0.17
2018-11-23T02:24:48.389Z,0.11
2018-11-23T02:27:19.032Z,0.11
2018-11-23T02:29:50.214Z,0.08
2018-11-23T02:32:20.434Z,0.00
2018-11-23T02:34:50.790Z,0.05
2018-11-23T02:37:21.126Z,-0.06
2018-11-23T02:39:51.560Z,-0.04
2018-11-23T02:42:22.138Z,-0.03
2018-11-23T02:44:54.184Z,-0.05
2018-11-23T02:47:24.641Z,0.02
2018-11-23T02:49:56.055Z,0.04
2018-11-23T02:52:27.083Z,0.06
2018-11-23T02:54:57.998Z,0.04
2018-11-23T02:57:28.194Z,0.00
2018-11-23T02:59:59.350Z,0.00
2018-11-23T03:02:29.676Z,-0.02
2018-11-23T03:05:00.315Z,-0.03
2018-11-23T03:07:30.782Z,0.04
2018-11-23T03:10:01.100Z,-0.04
2018-11-23T03:12:31.580Z,-0.03
2018-11-23T03:15:02.099Z,-0.03
2018-11-23T03:17:32.334Z,-0.01
2018-11-23T03:20:02.748Z,-0.03
2018-11-23T03:22:33.085Z,-0.08
2018-11-23T03:25:03.385Z,-0.08
2018-11-23T03:27:33.744Z,-0.10
2018-11-23T03:30:07.774Z,-0.11
2018-11-23T03:32:38.170Z,-0.04
2018-11-23T03:35:08.569Z,-0.04
2018-11-23T03:37:38.839Z,0.00
2018-11-23T03:42:45.234Z,-0.12
2018-11-23T03:45:16.126Z,-0.13
2018-11-23T03:47:47.208Z,-0.06
2018-11-23T03:50:18.222Z,-0.13
2018-11-23T03:52:49.154Z,-0.10
2018-11-23T03:55:19.439Z,-0.12
2018-11-23T03:57:49.837Z,-0.14
2018-11-23T04:00:22.559Z,-0.10
2018-11-23T04:02:54.375Z,-0.07
2018-11-23T04:05:24.588Z,-0.03
2018-11-23T04:07:56.240Z,-0.02
2018-11-23T04:10:26.673Z,-0.12
2018-11-23T04:12:56.997Z,-0.08
2018-11-23T04:15:27.363Z,-0.10
2018-11-23T04:17:57.682Z,-0.10
2018-11-23T04:20:28.317Z,-0.07
2018-11-23T04:22:59.264Z,-0.04
2018-11-23T04:25:34.347Z,-0.03
2018-11-23T04:28:05.747Z,-0.08
2018-11-23T04:30:36.623Z,-0.08
2018-11-23T04:33:07.661Z,-0.09
2018-11-23T04:35:38.044Z,-0.10
2018-11-23T04:38:08.581Z,-0.05
2018-11-23T04:40:38.810Z,-0.02
2018-11-23T04:43:09.775Z,0.01
2018-11-23T04:45:40.384Z,-0.01
2018-11-23T04:48:10.631Z,-0.03
2018-11-23T04:50:41.458Z,-0.10
2018-11-23T04:53:11.843Z,-0.09
2018-11-23T04:55:42.024Z,-0.15
2018-11-23T04:58:12.505Z,-0.15
2018-11-23T05:00:46.118Z,-0.14
2018-11-23T05:03:16.663Z,-0.17
2018-11-23T05:05:46.966Z,-0.24
2018-11-23T05:08:17.712Z,-0.19
2018-11-23T05:10:47.981Z,-0.18
2018-11-23T05:13:18.510Z,-0.12
2018-11-23T05:15:49.012Z,-0.21
2018-11-23T05:18:20.213Z,-0.26
2018-11-23T05:20:50.579Z,-0.27
2018-11-23T05:23:21.088Z,-0.23
2018-11-23T05:25:52.641Z,-0.20
2018-11-23T05:28:23.027Z,-0.20
2018-11-23T05:30:53.423Z,-0.21
2018-11-23T05:33:23.828Z,-0.12
2018-11-23T05:35:54.296Z,-0.09
2018-11-23T05:41:00.424Z,-0.12
2018-11-23T05:43:30.802Z,-0.11
2018-11-23T05:46:02.320Z,-0.14
2018-11-23T05:48:33.566Z,-0.09
2018-11-23T05:51:04.615Z,-0.07
2018-11-23T05:53:35.064Z,-0.07
2018-11-23T05:56:06.240Z,-0.08
2018-11-23T05:58:36.527Z,-0.16
2018-11-23T06:01:06.792Z,-0.16
2018-11-23T06:03:37.192Z,-0.09
2018-11-23T06:06:07.753Z,-0.11
2018-11-23T06:08:40.651Z,-0.12
2018-11-23T06:11:11.044Z,-0.02
2018-11-23T06:13:41.406Z,-0.07
2018-11-23T06:16:11.712Z,-0.06
2018-11-23T06:18:41.897Z,-0.06
2018-11-23T06:21:12.405Z,-0.11
2018-11-23T06:23:42.678Z,-0.03
2018-11-23T06:26:18.927Z,-0.03
2018-11-23T06:28:49.778Z,-0.08
2018-11-23T06:31:20.492Z,0.03
2018-11-23T06:33:51.015Z,0.06
2018-11-23T06:36:21.546Z,-0.04
2018-11-23T06:38:51.948Z,-0.01
2018-11-23T06:41:22.285Z,0.04
2018-11-23T06:43:53.384Z,0.05
2018-11-23T06:46:24.305Z,0.11
2018-11-23T06:48:54.831Z,0.16
2018-11-23T06:51:25.772Z,0.14
2018-11-23T06:53:56.554Z,0.17
2018-11-23T06:56:26.818Z,0.20
2018-11-23T06:58:57.060Z,0.19
2018-11-23T07:01:27.561Z,0.18
2018-11-23T07:03:58.671Z,0.22
2018-11-23T07:09:08.147Z,0.27
2018-11-23T07:11:39.128Z,0.22
2018-11-23T07:14:09.368Z,0.29
2018-11-23T07:16:40.430Z,0.33
2018-11-23T07:19:11.695Z,0.33
2018-11-23T07:21:42.007Z,0.32
2018-11-23T07:24:12.635Z,0.36
2018-11-23T07:26:43.309Z,0.35
2018-11-23T07:29:13.841Z,0.42
2018-11-23T07:31:50.946Z,0.48
2018-11-23T07:34:22.885Z,0.51
2018-11-23T07:36:51.956Z,0.52
2018-11-23T07:39:33.380Z,0.56
2018-11-23T07:42:18.554Z,0.58
2018-11-23T07:47:25.070Z,0.64
2018-11-23T07:49:55.563Z,0.59
2018-11-23T07:52:27.039Z,0.66
2018-11-23T07:54:57.354Z,0.70
2018-11-23T07:57:27.823Z,0.66
2018-11-23T07:59:58.188Z,0.68
2018-11-23T08:02:28.413Z,0.71
2018-11-23T08:05:01.756Z,0.78
2018-11-23T08:07:32.335Z,0.85
2018-11-23T08:10:02.072Z,0.87
2018-11-23T08:12:32.305Z,0.84
2018-11-23T08:15:02.580Z,0.84
2018-11-23T08:17:33.613Z,0.93
2018-11-23T08:20:03.878Z,0.86
2018-11-23T08:22:34.306Z,0.80
2018-11-23T08:25:05.750Z,0.87
2018-11-23T08:30:21.913Z,1.02
2018-11-23T08:32:52.310Z,1.04
2018-11-23T08:35:22.923Z,1.02
2018-11-23T08:37:53.544Z,1.12
2018-11-23T08:40:25.688Z,1.12
2018-11-23T08:42:56.505Z,1.09
2018-11-23T08:45:27.661Z,1.13
2018-11-23T08:47:58.134Z,1.12
2018-11-23T08:50:29.771Z,1.12
2018-11-23T08:53:00.174Z,1.19
2018-11-23T08:55:31.051Z,1.25
2018-11-23T08:58:01.539Z,1.25
2018-11-23T09:00:31.966Z,1.09
2018-11-23T09:03:03.598Z,1.11
2018-11-23T09:05:34.368Z,1.20
2018-11-23T09:08:05.306Z,1.11
2018-11-23T09:10:35.514Z,1.07
2018-11-23T09:13:05.850Z,1.10
2018-11-23T09:15:36.277Z,1.18
2018-11-23T09:18:06.936Z,1.14
2018-11-23T09:20:38.101Z,1.04
2018-11-23T09:23:08.428Z,1.10
2018-11-23T09:25:38.640Z,1.19
2018-11-23T09:28:09.316Z,1.33
2018-11-23T09:30:39.789Z,1.32
2018-11-23T09:33:11.026Z,1.33
2018-11-23T09:35:41.458Z,1.25
2018-11-23T09:38:11.816Z,1.20
2018-11-23T09:40:42.214Z,1.27
2018-11-23T09:43:12.449Z,1.28
2018-11-23T09:45:42.823Z,1.28
2018-11-23T09:48:13.411Z,1.39
2018-11-23T09:50:43.661Z,1.45
2018-11-23T09:53:18.088Z,1.45
2018-11-23T09:55:48.410Z,1.39
2018-11-23T09:58:18.661Z,1.51
2018-11-23T10:00:49.195Z,1.51
2018-11-23T10:03:23.610Z,1.55
2018-11-23T10:05:54.336Z,1.49
2018-11-23T10:08:24.602Z,1.47
2018-11-23T10:10:55.800Z,1.44
2018-11-23T10:13:26.004Z,1.40
2018-11-23T10:15:57.075Z,1.38
2018-11-23T10:18:27.294Z,1.45
2018-11-23T10:20:58.023Z,1.50
2018-11-23T10:23:28.361Z,1.50
2018-11-23T10:25:58.943Z,1.45
2018-11-23T10:28:29.284Z,1.40
2018-11-23T10:31:00.222Z,1.35
2018-11-23T10:33:30.600Z,1.31
2018-11-23T10:36:00.889Z,1.38
2018-11-23T10:38:31.681Z,1.33
2018-11-23T10:41:02.293Z,1.32
2018-11-23T10:43:33.163Z,1.32
2018-11-23T10:46:03.673Z,1.37
2018-11-23T10:48:34.215Z,1.31
2018-11-23T10:51:05.721Z,1.30
2018-11-23T10:53:35.938Z,1.34
2018-11-23T10:58:46.290Z,1.46
2018-11-23T11:01:22.570Z,1.52
2018-11-23T11:03:58.003Z,1.46
2018-11-23T11:06:33.821Z,1.48
2018-11-23T11:09:07.087Z,1.51
2018-11-23T11:11:37.766Z,1.55
2018-11-23T11:14:08.448Z,1.63
2018-11-23T11:16:38.700Z,1.69
2018-11-23T11:19:09.652Z,1.73
2018-11-23T11:21:43.937Z,1.79
2018-11-23T11:24:14.715Z,1.84
2018-11-23T11:26:45.572Z,1.83
2018-11-23T11:29:16.533Z,1.87
2018-11-23T11:31:46.843Z,1.80
2018-11-23T11:34:17.276Z,1.87
2018-11-23T11:36:48.010Z,1.90
2018-11-23T11:39:18.305Z,1.92
2018-11-23T11:41:48.554Z,1.93
2018-11-23T11:44:18.815Z,1.96
2018-11-23T11:46:49.106Z,1.83
2018-11-23T11:49:22.893Z,1.81
2018-11-23T11:51:53.519Z,1.80
2018-11-23T11:54:24.260Z,1.82
2018-11-23T11:56:54.760Z,1.87
2018-11-23T11:59:25.954Z,1.85
2018-11-23T12:01:56.361Z,1.78
2018-11-23T12:04:26.875Z,1.88
2018-11-23T12:06:57.384Z,1.86
2018-11-23T12:09:27.623Z,1.90
2018-11-23T12:11:57.908Z,1.89
2018-11-23T12:14:28.288Z,1.89
2018-11-23T12:16:58.590Z,1.83
2018-11-23T12:19:28.802Z,1.84
2018-11-23T12:21:58.993Z,1.79
2018-11-23T12:24:30.585Z,1.86
2018-11-23T12:27:07.517Z,1.91
2018-11-23T12:29:37.811Z,1.88
2018-11-23T12:32:08.286Z,1.91
2018-11-23T12:34:38.712Z,1.82
2018-11-23T12:37:09.895Z,1.83
2018-11-23T12:39:40.923Z,1.79
2018-11-23T12:42:11.363Z,1.77
2018-11-23T12:44:45.694Z,1.70
2018-11-23T12:47:16.404Z,1.70
2018-11-23T12:49:46.999Z,1.76
2018-11-23T12:52:17.915Z,1.74
2018-11-23T12:54:48.366Z,1.75
2018-11-23T12:57:19.020Z,1.72
2018-11-23T12:59:49.321Z,1.78
2018-11-23T13:02:22.575Z,1.64
2018-11-23T13:04:53.279Z,1.63
2018-11-23T13:07:23.544Z,1.64
2018-11-23T13:09:54.392Z,1.58
2018-11-23T13:12:24.810Z,1.56
2018-11-23T13:14:55.235Z,1.56
2018-11-23T13:17:25.619Z,1.65
2018-11-23T13:19:56.682Z,1.63
2018-11-23T13:22:27.573Z,1.66
2018-11-23T13:24:57.865Z,1.65
2018-11-23T13:27:28.333Z,1.58
2018-11-23T13:29:58.597Z,1.62
2018-11-23T13:32:28.899Z,1.64
2018-11-23T13:34:59.347Z,1.65
2018-11-23T13:37:29.584Z,1.70
2018-11-23T13:39:59.842Z,1.64
2018-11-23T13:42:30.291Z,1.67
2018-11-23T13:45:00.797Z,1.77
2018-11-23T13:47:36.531Z,1.70
2018-11-23T13:50:15.042Z,1.60
2018-11-23T13:52:51.738Z,1.68
2018-11-23T13:55:27.744Z,1.73
2018-11-23T13:58:03.142Z,1.79
2018-11-23T14:00:39.669Z,1.72
2018-11-23T14:03:15.257Z,1.71
2018-11-23T14:05:51.533Z,1.75
2018-11-23T14:08:31.183Z,1.59
2018-11-23T14:11:01.515Z,1.62
2018-11-23T14:13:31.482Z,1.61
2018-11-23T14:16:01.602Z,1.55
2018-11-23T14:18:31.770Z,1.56
2018-11-23T14:21:02.423Z,1.56
2018-11-23T14:23:32.477Z,1.54
2018-11-23T14:26:02.771Z,1.53
2018-11-23T14:28:32.717Z,1.55
2018-11-23T14:31:03.478Z,1.49
2018-11-23T14:33:33.589Z,1.46
2018-11-23T14:36:04.186Z,1.47
2018-11-23T14:38:34.450Z,1.45
2018-11-23T14:41:05.524Z,1.51
2018-11-23T14:43:35.561Z,1.55
2018-11-23T14:46:05.640Z,1.57
2018-11-23T14:48:36.071Z,1.49
2018-11-23T14:51:07.054Z,1.56
2018-11-23T14:53:37.381Z,1.49
2018-11-23T14:56:07.591Z,1.53
2018-11-23T14:58:38.830Z,1.57
2018-11-23T15:01:09.447Z,1.51
2018-11-23T15:03:39.692Z,1.48
2018-11-23T15:06:09.750Z,1.41
2018-11-23T15:08:40.302Z,1.49
2018-11-23T15:11:10.409Z,1.48
2018-11-23T15:13:40.694Z,1.47
2018-11-23T15:16:10.806Z,1.52
2018-11-23T15:18:40.856Z,1.55
2018-11-23T15:21:10.916Z,1.54
2018-11-23T15:23:41.211Z,1.55
2018-11-23T15:26:11.363Z,1.55
2018-11-23T15:28:41.519Z,1.61
2018-11-23T15:31:11.770Z,1.58
2018-11-23T15:33:41.852Z,1.58
2018-11-23T15:36:12.312Z,1.56
2018-11-23T15:38:42.860Z,1.60
2018-11-23T15:41:12.966Z,1.59
2018-11-23T15:43:43.415Z,1.57
2018-11-23T15:46:14.663Z,1.58
2018-11-23T15:48:44.864Z,1.51
2018-11-23T15:51:15.308Z,1.36
2018-11-23T15:53:46.143Z,1.50
2018-11-23T15:56:16.478Z,1.46
2018-11-23T15:58:46.512Z,1.53
2018-11-23T16:01:16.901Z,1.50
2018-11-23T16:03:47.445Z,1.53
2018-11-23T16:06:17.663Z,1.60
2018-11-23T16:08:47.616Z,1.52
2018-11-23T16:11:17.962Z,1.57
2018-11-23T16:13:48.472Z,1.60
2018-11-23T16:16:18.554Z,1.63
2018-11-23T16:18:48.522Z,1.61
2018-11-23T16:21:18.815Z,1.61
2018-11-23T16:23:49.985Z,1.59
2018-11-23T16:26:20.153Z,1.59
2018-11-23T16:28:50.186Z,1.62
2018-11-23T16:31:20.349Z,1.63
2018-11-23T16:33:50.919Z,1.62
2018-11-23T16:36:21.198Z,1.51
2018-11-23T16:38:51.196Z,1.58
2018-11-23T16:41:21.555Z,1.59
2018-11-23T16:43:51.603Z,1.58
2018-11-23T16:46:22.217Z,1.55
2018-11-23T16:48:53.067Z,1.55
2018-11-23T16:51:24.086Z,1.47
2018-11-23T16:53:54.168Z,1.51
2018-11-23T16:56:24.616Z,1.52
2018-11-23T16:58:54.801Z,1.51
2018-11-23T17:01:25.810Z,1.44
2018-11-23T17:03:56.457Z,1.45
2018-11-23T17:06:26.951Z,1.44
2018-11-23T17:08:56.940Z,1.39
2018-11-23T17:11:27.170Z,1.39
2018-11-23T17:13:57.182Z,1.35
2018-11-23T17:16:27.470Z,1.35
2018-11-23T17:18:57.880Z,1.44
2018-11-23T17:21:28.593Z,1.45
2018-11-23T17:23:58.595Z,1.47
2018-11-23T17:26:28.955Z,1.49
2018-11-23T17:28:58.953Z,1.53
2018-11-23T17:31:29.184Z,1.58
2018-11-23T17:33:59.178Z,1.53
2018-11-23T17:36:29.909Z,1.50
2018-11-23T17:39:00.363Z,1.50
2018-11-23T17:41:30.452Z,1.52
2018-11-23T17:44:01.078Z,1.52
2018-11-23T17:46:31.442Z,1.53
2018-11-23T17:49:02.315Z,1.53
2018-11-23T17:51:32.744Z,1.55
2018-11-23T17:54:02.778Z,1.54
2018-11-23T17:56:32.805Z,1.53
2018-11-23T17:59:03.074Z,1.55
2018-11-23T18:01:33.582Z,1.46
2018-11-23T18:04:04.011Z,1.49
2018-11-23T18:06:34.223Z,1.42
2018-11-23T18:09:10.297Z,1.48
2018-11-23T18:11:46.420Z,1.46
2018-11-23T18:14:22.387Z,1.44
2018-11-23T18:16:58.058Z,1.42
2018-11-23T18:19:38.168Z,1.47
2018-11-23T18:22:14.159Z,1.50
2018-11-23T18:24:49.983Z,1.50
2018-11-23T18:27:33.575Z,1.49
2018-11-23T18:30:10.481Z,1.52
2018-11-23T18:32:46.341Z,1.51
2018-11-23T18:35:16.618Z,1.53
2018-11-23T18:37:52.537Z,1.58
2018-11-23T18:40:22.911Z,1.51
2018-11-23T18:42:54.407Z,1.60
2018-11-23T18:45:24.927Z,1.64
2018-11-23T18:47:54.937Z,1.65
2018-11-23T18:50:25.542Z,1.70
2018-11-23T18:52:56.101Z,1.66
2018-11-23T18:55:27.234Z,1.69
2018-11-23T18:57:57.411Z,1.71
2018-11-23T19:00:27.419Z,1.70
2018-11-23T19:02:57.542Z,1.70
2018-11-23T19:05:28.387Z,1.65
2018-11-23T19:07:59.065Z,1.66
2018-11-23T19:10:29.790Z,1.59
2018-11-23T19:13:00.222Z,1.54
2018-11-23T19:15:32.207Z,1.57
2018-11-23T19:18:02.601Z,1.56
2018-11-23T19:20:32.930Z,1.59
2018-11-23T19:23:03.210Z,1.58
2018-11-23T19:25:34.446Z,1.58
2018-11-23T19:28:05.023Z,1.62
2018-11-23T19:30:35.808Z,1.66
2018-11-23T19:33:06.333Z,1.68
2018-11-23T19:35:36.555Z,1.56
2018-11-23T19:38:07.203Z,1.62
2018-11-23T19:40:37.822Z,1.63
2018-11-23T19:43:07.900Z,1.62
2018-11-23T19:45:38.033Z,1.64
2018-11-23T19:48:08.291Z,1.63
2018-11-23T19:50:42.574Z,1.56
2018-11-23T19:53:13.265Z,1.59
2018-11-23T19:55:47.627Z,1.68
2018-11-23T19:58:17.887Z,1.67
2018-11-23T20:00:48.212Z,1.69
2018-11-23T20:03:18.504Z,1.69
2018-11-23T20:05:49.138Z,1.71
2018-11-23T20:08:20.167Z,1.72
2018-11-23T20:10:50.890Z,1.78
2018-11-23T20:13:21.154Z,1.72
2018-11-23T20:15:51.377Z,1.66
2018-11-23T20:18:21.362Z,1.71
2018-11-23T20:20:52.457Z,1.75
2018-11-23T20:23:22.432Z,1.79
2018-11-23T20:25:52.490Z,1.81
2018-11-23T20:28:22.454Z,1.82
2018-11-23T20:30:53.343Z,1.82
2018-11-23T20:33:23.419Z,1.83
2018-11-23T20:35:54.036Z,1.83
2018-11-23T20:38:25.055Z,1.75
2018-11-23T20:40:55.042Z,1.73
2018-11-23T20:43:25.374Z,1.70
2018-11-23T20:45:55.703Z,1.68
2018-11-23T20:48:27.061Z,1.63
2018-11-23T20:50:57.111Z,1.62
2018-11-23T20:53:27.922Z,1.61
2018-11-23T20:55:58.040Z,1.56
2018-11-23T20:58:28.772Z,1.57
2018-11-23T21:00:58.781Z,1.54
2018-11-23T21:03:28.929Z,1.55
2018-11-23T21:05:58.931Z,1.61
2018-11-23T21:08:29.164Z,1.53
2018-11-23T21:10:59.833Z,1.57
2018-11-23T21:13:30.165Z,1.53
2018-11-23T21:16:00.306Z,1.53
2018-11-23T21:18:30.320Z,1.53
2018-11-23T21:21:00.552Z,1.55
2018-11-23T21:23:31.147Z,1.57
2018-11-23T21:26:01.292Z,1.49
2018-11-23T21:28:31.858Z,1.45
2018-11-23T21:31:02.614Z,1.41
2018-11-23T21:33:32.776Z,1.42
2018-11-23T21:36:03.541Z,1.47
2018-11-23T21:38:33.926Z,1.46
2018-11-23T21:41:04.018Z,1.48
2018-11-23T21:43:34.201Z,1.48
2018-11-23T21:46:05.576Z,1.38
2018-11-23T21:48:35.692Z,1.42
2018-11-23T21:51:06.692Z,1.45
2018-11-23T21:53:37.734Z,1.42
2018-11-23T21:56:09.469Z,1.43
2018-11-23T21:58:38.497Z,1.43
2018-11-23T22:01:08.748Z,1.41
2018-11-23T22:03:39.549Z,1.40
2018-11-23T22:06:10.604Z,1.32
2018-11-23T22:08:41.379Z,1.40
2018-11-23T22:11:11.507Z,1.41
2018-11-23T22:13:42.350Z,1.35
2018-11-23T22:16:13.002Z,1.32
2018-11-23T22:18:44.105Z,1.33
2018-11-23T22:21:14.066Z,1.30
2018-11-23T22:23:44.568Z,1.34
2018-11-23T22:26:15.705Z,1.22
2018-11-23T22:28:46.021Z,1.28
2018-11-23T22:31:16.463Z,1.27
2018-11-23T22:33:47.354Z,1.27
2018-11-23T22:36:17.444Z,3.02
2018-11-23T22:38:47.658Z,1.99
2018-11-23T22:41:18.035Z,1.79
2018-11-23T22:43:49.463Z,1.59
2018-11-23T22:46:21.112Z,1.57
2018-11-23T22:48:51.323Z,1.50
2018-11-23T22:51:21.800Z,1.40
2018-11-23T22:53:53.364Z,1.39
2018-11-23T22:56:23.969Z,1.34
2018-11-23T22:58:56.217Z,1.29
2018-11-23T23:01:28.399Z,1.29
2018-11-23T23:03:59.673Z,1.27
2018-11-23T23:06:30.705Z,1.26
2018-11-23T23:09:02.003Z,1.19
2018-11-23T23:11:33.045Z,1.20
2018-11-23T23:14:04.582Z,1.19
2018-11-23T23:16:36.022Z,1.14
2018-11-23T23:19:06.926Z,1.15
2018-11-23T23:21:37.980Z,1.10
2018-11-23T23:24:11.886Z,1.11
2018-11-23T23:26:40.977Z,1.10
2018-11-23T23:29:12.333Z,1.04
2018-11-23T23:31:42.354Z,0.95
2018-11-23T23:34:13.104Z,1.06
2018-11-23T23:36:45.431Z,1.09
2018-11-23T23:39:17.436Z,1.11
2018-11-23T23:41:48.014Z,1.09
2018-11-23T23:44:19.359Z,1.05
2018-11-23T23:46:50.675Z,1.13
2018-11-23T23:49:22.268Z,1.11
2018-11-23T23:51:52.906Z,1.02
2018-11-23T23:57:00.852Z,0.99
2018-11-23T23:59:35.593Z,0.98
